createdAt,value
2018-11-02T00:00:46.758Z,99709.50
2018-11-02T00:03:16.410Z,99704.95
2018-11-02T00:05:46.323Z,99700.48
2018-11-02T00:08:15.964Z,99705.08
2018-11-02T00:10:45.695Z,99713.70
2018-11-02T00:13:15.349Z,99716.17
2018-11-02T00:15:45.060Z,99717.61
2018-11-02T00:18:14.712Z,99717.69
2018-11-02T00:20:44.396Z,99719.27
2018-11-02T00:23:14.039Z,99715.77
2018-11-02T00:25:43.732Z,99700.30
2018-11-02T00:28:13.411Z,99699.34
2018-11-02T00:30:43.105Z,99695.63
2018-11-02T00:33:12.763Z,99694.36
2018-11-02T00:35:42.437Z,99695.06
2018-11-02T00:38:12.105Z,99707.25
2018-11-02T00:40:41.789Z,99726.03
2018-11-02T00:43:11.436Z,99735.05
2018-11-02T00:45:41.110Z,99753.67
2018-11-02T00:48:10.780Z,99745.83
2018-11-02T00:50:40.480Z,99748.03
2018-11-02T00:53:10.214Z,99745.80
2018-11-02T00:55:39.895Z,99741.73
2018-11-02T00:58:09.567Z,99742.63
2018-11-02T01:00:39.224Z,99739.33
2018-11-02T01:03:08.894Z,99743.95
2018-11-02T01:05:39.010Z,99730.62
2018-11-02T01:08:08.716Z,99737.17
2018-11-02T01:10:38.398Z,99747.94
2018-11-02T01:13:08.024Z,99751.94
2018-11-02T01:15:37.704Z,99749.78
2018-11-02T01:18:07.349Z,99750.09
2018-11-02T01:20:37.336Z,99742.45
2018-11-02T01:23:07.015Z,99744.95
2018-11-02T01:25:36.704Z,99744.36
2018-11-02T01:28:06.404Z,99744.95
2018-11-02T01:30:36.092Z,99744.30
2018-11-02T01:33:05.961Z,99735.31
2018-11-02T01:35:35.648Z,99743.25
2018-11-02T01:38:05.324Z,99743.88
2018-11-02T01:40:34.979Z,99753.19
2018-11-02T01:43:04.603Z,99745.81
2018-11-02T01:45:34.256Z,99751.38
2018-11-02T01:48:03.921Z,99775.28
2018-11-02T01:50:33.596Z,99775.72
2018-11-02T01:53:03.241Z,99776.97
2018-11-02T01:55:32.908Z,99778.30
2018-11-02T01:58:02.544Z,99771.25
2018-11-02T02:00:32.215Z,99772.87
2018-11-02T02:03:01.845Z,99782.58
2018-11-02T02:05:31.594Z,99784.90
2018-11-02T02:08:01.248Z,99783.44
2018-11-02T02:10:30.924Z,99782.30
2018-11-02T02:13:00.599Z,99780.20
2018-11-02T02:15:30.309Z,99791.45
2018-11-02T02:17:59.955Z,99789.53
2018-11-02T02:20:29.620Z,99777.92
2018-11-02T02:22:59.272Z,99776.70
2018-11-02T02:25:28.936Z,99779.28
2018-11-02T02:27:58.608Z,99769.98
2018-11-02T02:30:28.288Z,99758.77
2018-11-02T02:32:57.932Z,99759.13
2018-11-02T02:35:27.627Z,99772.27
2018-11-02T02:37:57.292Z,99780.27
2018-11-02T02:40:26.943Z,99779.13
2018-11-02T02:42:56.631Z,99788.08
2018-11-02T02:45:26.311Z,99778.39
2018-11-02T02:47:55.947Z,99783.72
2018-11-02T02:52:58.649Z,99787.25
2018-11-02T02:55:28.311Z,99792.97
2018-11-02T02:57:57.932Z,99785.48
2018-11-02T03:00:27.616Z,99787.48
2018-11-02T03:02:57.260Z,99783.55
2018-11-02T03:05:26.936Z,99797.04
2018-11-02T03:07:56.652Z,99803.20
2018-11-02T03:10:26.380Z,99810.18
2018-11-02T03:12:55.984Z,99811.36
2018-11-02T03:15:25.652Z,99812.50
2018-11-02T03:17:55.306Z,99817.33
2018-11-02T03:20:24.984Z,99813.39
2018-11-02T03:22:54.635Z,99829.52
2018-11-02T03:25:24.289Z,99828.13
2018-11-02T03:27:53.944Z,99836.48
2018-11-02T03:30:23.672Z,99840.58
2018-11-02T03:32:53.331Z,99842.06
2018-11-02T03:35:22.962Z,99844.77
2018-11-02T03:37:52.612Z,99851.44
2018-11-02T03:40:22.263Z,99842.80
2018-11-02T03:42:51.896Z,99854.14
2018-11-02T03:45:21.589Z,99842.88
2018-11-02T03:47:51.469Z,99852.91
2018-11-02T03:50:21.365Z,99846.14
2018-11-02T03:52:51.027Z,99856.17
2018-11-02T03:55:20.723Z,99857.00
2018-11-02T03:57:50.384Z,99855.03
2018-11-02T04:00:20.184Z,99860.56
2018-11-02T04:02:49.833Z,99867.71
2018-11-02T04:05:19.507Z,99869.23
2018-11-02T04:07:49.133Z,99869.40
2018-11-02T04:10:18.782Z,99873.44
2018-11-02T04:12:48.405Z,99888.42
2018-11-02T04:15:18.071Z,99891.17
2018-11-02T04:17:47.708Z,99898.36
2018-11-02T04:20:17.380Z,99897.97
2018-11-02T04:22:47.042Z,99893.48
2018-11-02T04:25:16.724Z,99897.48
2018-11-02T04:27:46.361Z,99898.12
2018-11-02T04:30:16.034Z,99900.78
2018-11-02T04:32:45.674Z,99913.73
2018-11-02T04:35:15.357Z,99886.33
2018-11-02T04:37:44.988Z,99902.84
2018-11-02T04:40:14.660Z,99906.20
2018-11-02T04:42:44.281Z,99903.41
2018-11-02T04:45:13.968Z,99914.12
2018-11-02T04:47:43.597Z,99913.10
2018-11-02T04:50:13.271Z,99918.67
2018-11-02T04:52:42.964Z,99922.13
2018-11-02T04:55:12.621Z,99924.67
2018-11-02T04:57:42.281Z,99940.03
2018-11-02T05:00:11.957Z,99936.50
2018-11-02T05:02:41.596Z,99949.53
2018-11-02T05:05:11.257Z,99953.92
2018-11-02T05:07:40.892Z,99963.39
2018-11-02T05:10:10.978Z,99978.39
2018-11-02T05:12:40.671Z,99984.20
2018-11-02T05:15:10.348Z,99982.97
2018-11-02T05:17:40.018Z,99987.61
2018-11-02T05:20:10.951Z,99990.17
2018-11-02T05:22:40.631Z,100000.06
2018-11-02T05:25:10.751Z,100007.21
2018-11-02T05:27:40.412Z,100015.19
2018-11-02T05:30:10.949Z,100011.25
2018-11-02T05:32:40.979Z,100015.02
2018-11-02T05:35:10.659Z,100022.20
2018-11-02T05:37:40.317Z,100023.57
2018-11-02T05:40:10.300Z,100032.64
2018-11-02T05:42:39.967Z,100042.50
2018-11-02T05:45:09.745Z,100046.89
2018-11-02T05:47:39.417Z,100047.09
2018-11-02T05:50:09.116Z,100051.57
2018-11-02T05:52:38.772Z,100049.48
2018-11-02T05:55:09.170Z,100046.42
2018-11-02T05:57:39.148Z,100054.09
2018-11-02T06:00:09.649Z,100061.86
2018-11-02T06:02:39.309Z,100071.72
2018-11-02T06:05:09.033Z,100079.69
2018-11-02T06:07:39.175Z,100079.77
2018-11-02T06:10:09.013Z,100087.47
2018-11-02T06:12:38.675Z,100093.12
2018-11-02T06:15:08.340Z,100097.48
2018-11-02T06:17:38.044Z,100109.07
2018-11-02T06:20:08.483Z,100120.03
2018-11-02T06:22:38.440Z,100133.30
2018-11-02T06:25:08.428Z,100140.61
2018-11-02T06:27:38.104Z,100143.78
2018-11-02T06:30:08.902Z,100151.75
2018-11-02T06:32:38.657Z,100154.85
2018-11-02T06:35:09.196Z,100153.72
2018-11-02T06:37:38.886Z,100163.41
2018-11-02T06:40:08.680Z,100174.88
2018-11-02T06:42:38.397Z,100177.95
2018-11-02T06:45:09.549Z,100178.15
2018-11-02T06:47:39.513Z,100194.55
2018-11-02T06:50:09.219Z,100194.70
2018-11-02T06:52:38.852Z,100198.23
2018-11-02T06:55:09.376Z,100193.57
2018-11-02T06:57:39.027Z,100193.97
2018-11-02T07:00:12.621Z,100199.22
2018-11-02T07:02:42.514Z,100201.11
2018-11-02T07:05:12.261Z,100201.58
2018-11-02T07:07:42.106Z,100204.05
2018-11-02T07:10:11.595Z,100197.98
2018-11-02T07:12:41.266Z,100208.36
2018-11-02T07:15:10.911Z,100206.04
2018-11-02T07:17:40.553Z,100207.13
2018-11-02T07:20:10.249Z,100205.89
2018-11-02T07:22:39.906Z,100205.73
2018-11-02T07:25:09.633Z,100201.73
2018-11-02T07:27:39.332Z,100200.75
2018-11-02T07:30:10.178Z,100209.17
2018-11-02T07:32:39.883Z,100209.75
2018-11-02T07:35:10.624Z,100221.13
2018-11-02T07:37:40.327Z,100216.11
2018-11-02T07:40:11.196Z,100219.84
2018-11-02T07:42:41.234Z,100216.57
2018-11-02T07:45:11.215Z,100223.25
2018-11-02T07:47:40.983Z,100228.02
2018-11-02T07:50:11.908Z,100229.45
2018-11-02T07:52:41.792Z,100236.33
2018-11-02T07:55:13.088Z,100242.84
2018-11-02T07:57:42.740Z,100245.52
2018-11-02T08:00:14.761Z,100243.25
2018-11-02T08:02:45.603Z,100240.75
2018-11-02T08:05:15.972Z,100250.39
2018-11-02T08:07:45.682Z,100259.91
2018-11-02T08:10:15.362Z,100264.11
2018-11-02T08:12:44.995Z,100277.87
2018-11-02T08:15:14.620Z,100279.10
2018-11-02T08:17:44.388Z,100288.73
2018-11-02T08:20:14.307Z,100299.12
2018-11-02T08:22:44.440Z,100295.34
2018-11-02T08:25:14.119Z,100302.89
2018-11-02T08:27:43.738Z,100298.99
2018-11-02T08:30:13.448Z,100308.72
2018-11-02T08:32:43.089Z,100309.46
2018-11-02T08:35:13.743Z,100313.56
2018-11-02T08:37:43.591Z,100324.06
2018-11-02T08:40:13.961Z,100324.02
2018-11-02T08:42:44.008Z,100329.67
2018-11-02T08:45:13.692Z,100328.30
2018-11-02T08:47:43.332Z,100338.23
2018-11-02T08:50:13.657Z,100343.78
2018-11-02T08:52:43.617Z,100338.44
2018-11-02T08:55:13.350Z,100354.05
2018-11-02T08:57:43.109Z,100360.03
2018-11-02T09:00:13.641Z,100365.73
2018-11-02T09:02:43.272Z,100374.38
2018-11-02T09:05:12.943Z,100376.63
2018-11-02T09:07:42.624Z,100382.38
2018-11-02T09:10:12.944Z,100389.06
2018-11-02T09:12:42.623Z,100385.30
2018-11-02T09:15:12.269Z,100393.17
2018-11-02T09:17:41.897Z,100398.96
2018-11-02T09:20:11.596Z,100404.74
2018-11-02T09:22:41.392Z,100407.92
2018-11-02T09:25:11.240Z,100408.44
2018-11-02T09:27:40.924Z,100413.32
2018-11-02T09:30:13.828Z,100416.20
2018-11-02T09:32:43.860Z,100422.25
2018-11-02T09:35:14.230Z,100425.33
2018-11-02T09:37:44.219Z,100435.43
2018-11-02T09:40:13.877Z,100435.95
2018-11-02T09:42:43.592Z,100440.43
2018-11-02T09:45:14.413Z,100454.68
2018-11-02T09:47:44.442Z,100458.95
2018-11-02T09:50:14.157Z,100468.52
2018-11-02T09:52:43.826Z,100474.30
2018-11-02T09:55:14.988Z,100473.27
2018-11-02T09:57:45.596Z,100478.97
2018-11-02T10:00:15.568Z,100482.00
2018-11-02T10:02:45.232Z,100477.48
2018-11-02T10:05:14.877Z,100494.64
2018-11-02T10:07:44.601Z,100498.09
2018-11-02T10:10:14.280Z,100503.00
2018-11-02T10:12:43.913Z,100506.53
2018-11-02T10:15:14.948Z,100507.77
2018-11-02T10:17:44.611Z,100506.58
2018-11-02T10:20:14.309Z,100511.87
2018-11-02T10:22:43.977Z,100514.08
2018-11-02T10:25:13.626Z,100511.25
2018-11-02T10:27:44.224Z,100522.53
2018-11-02T10:30:14.825Z,100526.45
2018-11-02T10:32:46.317Z,100533.08
2018-11-02T10:35:16.122Z,100532.78
2018-11-02T10:37:46.111Z,100529.90
2018-11-02T10:40:17.148Z,100522.73
2018-11-02T10:42:58.524Z,100528.77
2018-11-02T10:45:31.649Z,100532.83
2018-11-02T10:48:02.158Z,100534.63
2018-11-02T10:50:31.817Z,100537.05
2018-11-02T10:53:01.479Z,100536.22
2018-11-02T10:55:31.192Z,100545.86
2018-11-02T10:58:00.880Z,100545.28
2018-11-02T11:00:35.994Z,100542.55
2018-11-02T11:03:05.892Z,100547.73
2018-11-02T11:05:35.667Z,100551.04
2018-11-02T11:08:05.345Z,100558.59
2018-11-02T11:10:35.070Z,100559.37
2018-11-02T11:13:05.182Z,100558.48
2018-11-02T11:15:34.485Z,100558.34
2018-11-02T11:18:04.228Z,100553.23
2018-11-02T11:20:33.909Z,100555.77
2018-11-02T11:23:03.596Z,100561.09
2018-11-02T11:25:33.313Z,100568.62
2018-11-02T11:28:02.989Z,100576.07
2018-11-02T11:30:32.640Z,100578.55
2018-11-02T11:33:02.357Z,100582.31
2018-11-02T11:35:32.029Z,100588.03
2018-11-02T11:38:01.712Z,100585.47
2018-11-02T11:40:31.456Z,100587.16
2018-11-02T11:43:01.135Z,100584.00
2018-11-02T11:45:30.828Z,100592.28
2018-11-02T11:48:00.580Z,100594.22
2018-11-02T11:50:30.260Z,100595.00
2018-11-02T11:52:59.974Z,100601.07
2018-11-02T11:55:29.719Z,100605.41
2018-11-02T11:57:59.399Z,100604.47
2018-11-02T12:00:29.139Z,100602.45
2018-11-02T12:02:58.819Z,100604.47
2018-11-02T12:05:28.572Z,100606.25
2018-11-02T12:07:58.321Z,100610.52
2018-11-02T12:10:28.081Z,100607.20
2018-11-02T12:12:57.687Z,100600.31
2018-11-02T12:15:27.445Z,100603.70
2018-11-02T12:17:57.160Z,100609.95
2018-11-02T12:20:28.256Z,100622.69
2018-11-02T12:23:00.391Z,100623.87
2018-11-02T12:25:30.205Z,100624.76
2018-11-02T12:27:59.945Z,100620.86
2018-11-02T12:30:29.620Z,100627.48
2018-11-02T12:32:59.312Z,100625.27
2018-11-02T12:35:29.000Z,100620.65
2018-11-02T12:37:58.669Z,100614.53
2018-11-02T12:40:28.367Z,100614.62
2018-11-02T12:42:58.004Z,100614.46
2018-11-02T12:45:27.656Z,100613.44
2018-11-02T12:47:57.446Z,100613.95
2018-11-02T12:50:28.281Z,100609.73
2018-11-02T12:52:59.217Z,100612.41
2018-11-02T12:55:28.880Z,100610.24
2018-11-02T12:57:58.521Z,100614.89
2018-11-02T13:00:28.939Z,100620.40
2018-11-02T13:02:58.856Z,100618.15
2018-11-02T13:05:28.552Z,100631.22
2018-11-02T13:07:58.212Z,100632.70
2018-11-02T13:10:27.842Z,100633.99
2018-11-02T13:12:57.555Z,100637.66
2018-11-02T13:15:27.239Z,100634.50
2018-11-02T13:17:56.885Z,100636.36
2018-11-02T13:20:26.578Z,100636.77
2018-11-02T13:22:56.256Z,100642.55
2018-11-02T13:25:25.955Z,100647.33
2018-11-02T13:27:55.672Z,100645.98
2018-11-02T13:30:25.500Z,100644.45
2018-11-02T13:32:54.992Z,100645.98
2018-11-02T13:35:24.676Z,100643.95
2018-11-02T13:37:54.312Z,100647.48
2018-11-02T13:40:23.984Z,100653.17
2018-11-02T13:42:53.701Z,100652.20
2018-11-02T13:45:23.332Z,100657.08
2018-11-02T13:47:52.964Z,100660.96
2018-11-02T13:50:22.687Z,100667.00
2018-11-02T13:52:52.701Z,100670.27
2018-11-02T13:55:22.416Z,100674.13
2018-11-02T13:57:52.073Z,100677.16
2018-11-02T14:00:21.814Z,100685.36
2018-11-02T14:02:51.499Z,100689.88
2018-11-02T14:05:21.144Z,100694.64
2018-11-02T14:07:50.800Z,100696.77
2018-11-02T14:10:20.477Z,100702.58
2018-11-02T14:12:50.124Z,100715.79
2018-11-02T14:15:19.760Z,100715.43
2018-11-02T14:17:49.466Z,100715.68
2018-11-02T14:20:19.105Z,100718.72
2018-11-02T14:22:48.752Z,100721.08
2018-11-02T14:25:18.528Z,100730.98
2018-11-02T14:27:48.176Z,100732.67
2018-11-02T14:30:18.348Z,100734.07
2018-11-02T14:32:48.743Z,100749.19
2018-11-02T14:35:18.435Z,100749.88
2018-11-02T14:37:48.085Z,100749.63
2018-11-02T14:40:17.734Z,100751.55
2018-11-02T14:42:47.416Z,100754.81
2018-11-02T14:45:17.062Z,100762.48
2018-11-02T14:47:47.172Z,100765.48
2018-11-02T14:50:16.823Z,100768.81
2018-11-02T14:52:46.462Z,100766.48
2018-11-02T14:55:16.136Z,100761.61
2018-11-02T14:57:45.807Z,100770.42
2018-11-02T15:00:15.452Z,100770.73
2018-11-02T15:02:45.124Z,100774.79
2018-11-02T15:05:14.839Z,100773.85
2018-11-02T15:07:44.629Z,100775.30
2018-11-02T15:10:14.332Z,100775.78
2018-11-02T15:12:43.977Z,100773.18
2018-11-02T15:15:13.628Z,100768.32
2018-11-02T15:17:43.402Z,100777.22
2018-11-02T15:20:14.565Z,100771.12
2018-11-02T15:22:44.280Z,100768.78
2018-11-02T15:25:13.974Z,100774.20
2018-11-02T15:27:43.633Z,100780.15
2018-11-02T15:30:14.453Z,100781.53
2018-11-02T15:32:45.246Z,100783.70
2018-11-02T15:35:14.981Z,100783.86
2018-11-02T15:37:44.746Z,100789.89
2018-11-02T15:40:14.756Z,100786.42
2018-11-02T15:42:44.422Z,100784.86
2018-11-02T15:45:15.390Z,100790.44
2018-11-02T15:47:45.713Z,100795.81
2018-11-02T15:50:15.424Z,100791.20
2018-11-02T15:52:45.072Z,100798.91
2018-11-02T15:55:14.717Z,100800.10
2018-11-02T15:57:44.392Z,100809.64
2018-11-02T16:00:15.905Z,100811.08
2018-11-02T16:02:46.971Z,100811.95
2018-11-02T16:05:16.632Z,100818.40
2018-11-02T16:07:46.362Z,100812.61
2018-11-02T16:10:16.064Z,100807.78
2018-11-02T16:12:45.800Z,100817.03
2018-11-02T16:15:15.536Z,100832.73
2018-11-02T16:17:45.218Z,100832.18
2018-11-02T16:20:15.741Z,100831.52
2018-11-02T16:22:45.756Z,100837.46
2018-11-02T16:25:15.556Z,100834.86
2018-11-02T16:27:45.236Z,100844.91
2018-11-02T16:30:14.883Z,100859.69
2018-11-02T16:32:44.588Z,100865.32
2018-11-02T16:35:14.233Z,100867.63
2018-11-02T16:37:43.901Z,100870.05
2018-11-02T16:40:15.328Z,100881.59
2018-11-02T16:42:45.752Z,100878.31
2018-11-02T16:45:15.873Z,100882.48
2018-11-02T16:47:45.730Z,100878.97
2018-11-02T16:50:16.135Z,100881.02
2018-11-02T16:52:45.779Z,100881.91
2018-11-02T16:55:15.452Z,100875.73
2018-11-02T16:57:45.311Z,100886.90
2018-11-02T17:00:16.675Z,100895.86
2018-11-02T17:02:47.545Z,100901.92
2018-11-02T17:05:17.545Z,100909.40
2018-11-02T17:07:47.219Z,100913.89
2018-11-02T17:10:16.948Z,100919.23
2018-11-02T17:12:46.679Z,100922.11
2018-11-02T17:15:16.370Z,100929.73
2018-11-02T17:17:46.028Z,100925.23
2018-11-02T17:20:18.008Z,100932.89
2018-11-02T17:22:47.975Z,100931.53
2018-11-02T17:25:17.658Z,100939.52
2018-11-02T17:27:47.293Z,100937.94
2018-11-02T17:30:18.202Z,100938.44
2018-11-02T17:32:47.885Z,100931.78
2018-11-02T17:35:17.527Z,100936.86
2018-11-02T17:37:47.248Z,100945.59
2018-11-02T17:40:16.976Z,100945.50
2018-11-02T17:42:46.668Z,100950.33
2018-11-02T17:45:16.353Z,100958.11
2018-11-02T17:47:46.092Z,100958.23
2018-11-02T17:50:16.239Z,100961.86
2018-11-02T17:52:45.877Z,100961.23
2018-11-02T17:55:15.558Z,100965.20
2018-11-02T17:57:45.264Z,100972.67
2018-11-02T18:00:15.320Z,100970.34
2018-11-02T18:02:44.968Z,100975.92
2018-11-02T18:05:14.669Z,100975.92
2018-11-02T18:07:44.362Z,100986.44
2018-11-02T18:10:14.410Z,100994.42
2018-11-02T18:12:44.092Z,100986.30
2018-11-02T18:15:14.153Z,100987.84
2018-11-02T18:17:43.819Z,100987.44
2018-11-02T18:20:15.136Z,100995.15
2018-11-02T18:22:44.897Z,100997.16
2018-11-02T18:25:14.615Z,101012.47
2018-11-02T18:27:44.572Z,101009.75
2018-11-02T18:30:14.232Z,101009.95
2018-11-02T18:32:43.888Z,101013.19
2018-11-02T18:35:13.609Z,101017.01
2018-11-02T18:37:43.261Z,101020.47
2018-11-02T18:40:13.966Z,101013.53
2018-11-02T18:42:43.936Z,101011.88
2018-11-02T18:45:14.766Z,101015.61
2018-11-02T18:47:46.529Z,101017.58
2018-11-02T18:50:17.620Z,101017.92
2018-11-02T18:52:47.902Z,101032.86
2018-11-02T18:55:17.968Z,101036.31
2018-11-02T18:57:47.660Z,101048.66
2018-11-02T19:00:17.892Z,101060.41
2018-11-02T19:02:47.560Z,101063.81
2018-11-02T19:05:18.456Z,101061.73
2018-11-02T19:07:48.131Z,101064.20
2018-11-02T19:10:17.817Z,101053.72
2018-11-02T19:12:47.515Z,101065.48
2018-11-02T19:15:18.489Z,101068.83
2018-11-02T19:17:48.200Z,101068.19
2018-11-02T19:20:17.889Z,101062.91
2018-11-02T19:22:47.564Z,101068.45
2018-11-02T19:25:17.601Z,101070.42
2018-11-02T19:27:47.439Z,101077.98
2018-11-02T19:30:17.504Z,101067.27
2018-11-02T19:32:47.188Z,101068.44
2018-11-02T19:35:17.030Z,101070.63
2018-11-02T19:37:46.590Z,101069.38
2018-11-02T19:40:16.961Z,101071.74
2018-11-02T19:42:46.664Z,101079.77
2018-11-02T19:45:16.320Z,101076.16
2018-11-02T19:48:06.100Z,101079.77
2018-11-02T19:50:35.804Z,101086.23
2018-11-02T19:53:05.696Z,101094.93
2018-11-02T19:55:35.355Z,101098.09
2018-11-02T19:58:05.075Z,101110.93
2018-11-02T20:00:34.761Z,101122.14
2018-11-02T20:03:04.492Z,101126.40
2018-11-02T20:05:34.137Z,101124.50
2018-11-02T20:08:04.233Z,101120.92
2018-11-02T20:10:33.885Z,101123.73
2018-11-02T20:13:03.608Z,101127.31
2018-11-02T20:15:33.257Z,101129.66
2018-11-02T20:18:03.000Z,101146.56
2018-11-02T20:20:32.659Z,101153.97
2018-11-02T20:23:02.401Z,101157.84
2018-11-02T20:25:32.048Z,101157.95
2018-11-02T20:28:01.976Z,101169.32
2018-11-02T20:30:31.635Z,101170.88
2018-11-02T20:33:01.296Z,101170.66
2018-11-02T20:35:30.963Z,101171.68
2018-11-02T20:38:00.679Z,101172.91
2018-11-02T20:40:30.338Z,101181.31
2018-11-02T20:43:00.017Z,101177.44
2018-11-02T20:45:29.720Z,101184.13
2018-11-02T20:47:59.517Z,101177.06
2018-11-02T20:50:29.183Z,101180.79
2018-11-02T20:52:58.820Z,101182.27
2018-11-02T20:55:28.552Z,101178.44
2018-11-02T20:57:58.216Z,101176.95
2018-11-02T21:00:27.892Z,101179.61
2018-11-02T21:02:57.596Z,101182.27
2018-11-02T21:05:27.333Z,101181.09
2018-11-02T21:07:57.414Z,101183.03
2018-11-02T21:10:27.048Z,101188.88
2018-11-02T21:12:56.688Z,101185.69
2018-11-02T21:15:26.485Z,101182.92
2018-11-02T21:17:56.152Z,101191.05
2018-11-02T21:20:26.669Z,101196.37
2018-11-02T21:22:56.390Z,101204.32
2018-11-02T21:25:26.613Z,101207.70
2018-11-02T21:27:56.360Z,101217.14
2018-11-02T21:30:26.912Z,101217.14
2018-11-02T21:32:56.932Z,101225.95
2018-11-02T21:35:26.637Z,101231.02
2018-11-02T21:37:56.322Z,101235.98
2018-11-02T21:40:26.789Z,101226.98
2018-11-02T21:42:56.444Z,101232.69
2018-11-02T21:45:26.211Z,101237.52
2018-11-02T21:47:55.877Z,101237.64
2018-11-02T21:50:25.762Z,101234.78
2018-11-02T21:52:55.468Z,101233.30
2018-11-02T21:55:25.180Z,101234.55
2018-11-02T21:57:54.828Z,101234.17
2018-11-02T22:00:24.610Z,101238.62
2018-11-02T22:02:54.261Z,101233.03
2018-11-02T22:05:24.076Z,101239.53
2018-11-02T22:07:53.844Z,101237.74
2018-11-02T22:10:23.516Z,101234.48
2018-11-02T22:12:53.240Z,101241.28
2018-11-02T22:15:22.909Z,101242.16
2018-11-02T22:17:52.656Z,101245.39
2018-11-02T22:20:22.392Z,101244.33
2018-11-02T22:22:52.064Z,101238.36
2018-11-02T22:25:21.714Z,101230.75
2018-11-02T22:27:51.440Z,101231.02
2018-11-02T22:30:21.117Z,101232.73
2018-11-02T22:32:50.753Z,101234.14
2018-11-02T22:35:20.443Z,101233.27
2018-11-02T22:37:50.145Z,101231.44
2018-11-02T22:40:19.856Z,101230.87
2018-11-02T22:42:49.553Z,101228.40
2018-11-02T22:45:19.214Z,101234.59
2018-11-02T22:47:54.052Z,101235.81
2018-11-02T22:50:23.730Z,101228.47
2018-11-02T22:52:53.387Z,101218.44
2018-11-02T22:55:23.100Z,101224.81
2018-11-02T22:57:52.747Z,101213.44
2018-11-02T23:00:22.477Z,101207.44
2018-11-02T23:02:52.201Z,101212.38
2018-11-02T23:05:21.866Z,101219.84
2018-11-02T23:07:51.566Z,101224.48
2018-11-02T23:10:21.276Z,101233.72
2018-11-02T23:12:50.953Z,101235.59
2018-11-02T23:15:20.636Z,101236.50
2018-11-02T23:17:50.324Z,101238.16
2018-11-02T23:20:19.998Z,101237.90
2018-11-02T23:22:49.741Z,101241.78
2018-11-02T23:25:19.428Z,101243.53
2018-11-02T23:27:49.112Z,101241.36
2018-11-02T23:30:18.778Z,101241.14
2018-11-02T23:32:48.488Z,101240.19
2018-11-02T23:35:18.193Z,101234.78
2018-11-02T23:37:47.837Z,101232.88
2018-11-02T23:40:17.552Z,101233.95
2018-11-02T23:42:47.200Z,101232.47
2018-11-02T23:45:16.921Z,101227.59
2018-11-02T23:47:51.841Z,101233.30
2018-11-02T23:50:21.516Z,101232.81
2018-11-02T23:52:51.237Z,101239.23
2018-11-02T23:55:20.912Z,101235.43
2018-11-02T23:57:50.615Z,101234.86
